createdAt,value
2019-05-25T00:01:36.171Z,13.80
2019-05-25T00:04:04.995Z,13.90
2019-05-25T00:06:33.441Z,13.80
2019-05-25T00:09:01.921Z,13.70
2019-05-25T00:11:30.380Z,13.70
2019-05-25T00:13:58.894Z,13.40
2019-05-25T00:16:27.400Z,13.40
2019-05-25T00:18:55.921Z,13.50
2019-05-25T00:21:27.429Z,13.40
2019-05-25T00:24:10.894Z,13.40
2019-05-25T00:26:26.089Z,13.30
2019-05-25T00:28:54.557Z,13.30
2019-05-25T00:31:23.035Z,13.30
2019-05-25T00:33:51.547Z,13.30
2019-05-25T00:36:20.043Z,13.20
2019-05-25T00:38:48.521Z,13.20
2019-05-25T00:41:16.963Z,13.20
2019-05-25T00:43:45.412Z,13.20
2019-05-25T00:46:13.889Z,13.20
2019-05-25T00:48:42.347Z,13.10
2019-05-25T00:51:10.789Z,13.10
2019-05-25T00:53:39.252Z,13.20
2019-05-25T00:56:07.788Z,13.20
2019-05-25T00:58:38.147Z,13.10
2019-05-25T01:01:06.666Z,13.10
2019-05-25T01:03:35.168Z,13.20
2019-05-25T01:06:03.703Z,13.20
2019-05-25T01:08:32.260Z,13.10
2019-05-25T01:11:00.708Z,12.90
2019-05-25T01:13:29.156Z,12.90
2019-05-25T01:15:57.704Z,13.00
2019-05-25T01:18:26.153Z,12.90
2019-05-25T01:20:54.590Z,12.80
2019-05-25T01:23:23.087Z,12.70
2019-05-25T01:25:51.609Z,12.70
2019-05-25T01:28:20.052Z,12.60
2019-05-25T01:30:48.550Z,12.50
2019-05-25T01:33:17.065Z,12.50
2019-05-25T01:35:45.512Z,12.70
2019-05-25T01:38:14.009Z,12.60
2019-05-25T01:40:44.054Z,12.60
2019-05-25T01:43:12.575Z,12.60
2019-05-25T01:45:41.088Z,12.70
2019-05-25T01:48:09.532Z,12.80
2019-05-25T01:50:37.982Z,13.00
2019-05-25T01:53:06.528Z,13.00
2019-05-25T01:55:34.980Z,13.20
2019-05-25T01:58:03.423Z,13.40
2019-05-25T02:00:31.912Z,13.70
2019-05-25T02:03:00.420Z,13.90
2019-05-25T02:05:28.879Z,13.80
2019-05-25T02:07:57.438Z,13.70
2019-05-25T02:10:25.879Z,13.70
2019-05-25T02:12:54.324Z,14.00
2019-05-25T02:15:22.784Z,14.00
2019-05-25T02:17:51.311Z,14.00
2019-05-25T02:20:20.426Z,13.90
2019-05-25T02:22:48.892Z,13.80
2019-05-25T02:25:18.862Z,13.70
2019-05-25T02:27:47.690Z,13.70
2019-05-25T02:30:16.693Z,13.80
2019-05-25T02:32:45.140Z,13.80
2019-05-25T02:35:19.356Z,13.60
2019-05-25T02:37:47.808Z,13.10
2019-05-25T02:40:16.388Z,13.10
2019-05-25T02:42:44.836Z,13.20
2019-05-25T02:45:13.429Z,13.50
2019-05-25T02:47:41.884Z,13.50
2019-05-25T02:50:10.391Z,13.60
2019-05-25T02:52:38.865Z,13.70
2019-05-25T02:55:12.101Z,13.80
2019-05-25T02:57:40.569Z,13.80
2019-05-25T03:00:10.153Z,13.40
2019-05-25T03:02:38.672Z,12.90
2019-05-25T03:05:13.033Z,12.70
2019-05-25T03:07:43.643Z,12.50
2019-05-25T03:10:12.277Z,12.70
2019-05-25T03:12:41.304Z,12.70
2019-05-25T03:15:09.969Z,12.60
2019-05-25T03:17:38.418Z,12.40
2019-05-25T03:20:07.903Z,12.40
2019-05-25T03:22:36.365Z,12.50
2019-05-25T03:25:07.900Z,12.30
2019-05-25T03:27:36.417Z,12.30
2019-05-25T03:30:09.884Z,12.20
2019-05-25T03:32:38.444Z,12.10
2019-05-25T03:35:07.505Z,12.00
2019-05-25T03:37:36.097Z,12.00
2019-05-25T03:40:09.687Z,11.90
2019-05-25T03:42:38.139Z,12.00
2019-05-25T03:45:07.861Z,12.00
2019-05-25T03:47:36.459Z,12.00
2019-05-25T03:50:05.553Z,11.90
2019-05-25T03:52:33.995Z,12.10
2019-05-25T03:55:02.489Z,12.10
2019-05-25T03:57:30.973Z,12.20
2019-05-25T03:59:59.443Z,12.10
2019-05-25T04:02:27.944Z,12.30
2019-05-25T04:04:56.461Z,12.00
2019-05-25T04:07:37.188Z,11.90
2019-05-25T04:10:06.261Z,11.80
2019-05-25T04:12:34.716Z,11.80
2019-05-25T04:15:03.202Z,11.80
2019-05-25T04:17:31.712Z,11.60
2019-05-25T04:20:00.157Z,11.70
2019-05-25T04:22:28.617Z,11.70
2019-05-25T04:24:57.085Z,11.70
2019-05-25T04:27:25.612Z,11.60
2019-05-25T04:29:54.080Z,11.60
2019-05-25T04:32:22.556Z,11.80
2019-05-25T04:34:51.024Z,12.00
2019-05-25T04:37:19.540Z,12.10
2019-05-25T04:39:48.070Z,12.40
2019-05-25T04:42:16.607Z,12.60
2019-05-25T04:44:45.056Z,12.90
2019-05-25T04:47:26.092Z,12.60
2019-05-25T04:49:43.782Z,12.70
2019-05-25T04:52:22.814Z,12.50
2019-05-25T04:54:51.288Z,12.60
2019-05-25T04:57:19.762Z,12.70
2019-05-25T04:59:48.209Z,12.70
2019-05-25T05:02:16.674Z,12.70
2019-05-25T05:04:45.201Z,12.70
2019-05-25T05:07:13.667Z,12.80
2019-05-25T05:09:42.108Z,12.90
2019-05-25T05:12:10.565Z,12.90
2019-05-25T05:14:39.028Z,13.00
2019-05-25T05:17:07.518Z,13.10
2019-05-25T05:19:38.915Z,13.20
2019-05-25T05:22:07.360Z,13.20
2019-05-25T05:24:35.860Z,13.30
2019-05-25T05:27:05.808Z,13.40
2019-05-25T05:29:34.273Z,13.50
2019-05-25T05:32:02.720Z,13.60
2019-05-25T05:34:31.212Z,14.00
2019-05-25T05:37:00.643Z,14.40
2019-05-25T05:39:29.291Z,14.60
2019-05-25T05:41:58.782Z,14.60
2019-05-25T05:44:28.275Z,14.50
2019-05-25T05:46:59.934Z,14.40
2019-05-25T05:49:30.176Z,14.40
2019-05-25T05:52:02.027Z,14.40
2019-05-25T05:54:32.246Z,14.70
2019-05-25T05:57:11.775Z,14.90
2019-05-25T05:59:30.963Z,14.80
2019-05-25T06:01:59.419Z,14.90
2019-05-25T06:04:27.864Z,15.00
2019-05-25T06:06:56.319Z,15.10
2019-05-25T06:09:24.763Z,15.20
2019-05-25T06:11:53.214Z,15.40
2019-05-25T06:14:21.689Z,15.40
2019-05-25T06:16:50.204Z,15.50
2019-05-25T06:19:18.668Z,15.60
2019-05-25T06:21:47.913Z,15.60
2019-05-25T06:24:16.397Z,15.80
2019-05-25T06:26:46.016Z,15.80
2019-05-25T06:29:14.492Z,15.90
2019-05-25T06:31:42.952Z,15.90
2019-05-25T06:34:11.405Z,16.10
2019-05-25T06:36:39.878Z,16.20
2019-05-25T06:39:08.698Z,16.20
2019-05-25T06:41:37.160Z,16.10
2019-05-25T06:44:05.758Z,16.20
2019-05-25T06:46:34.235Z,16.30
2019-05-25T06:49:02.821Z,16.40
2019-05-25T06:51:31.332Z,16.70
2019-05-25T06:53:59.903Z,17.00
2019-05-25T06:56:28.422Z,17.00
2019-05-25T06:58:56.937Z,17.10
2019-05-25T07:01:25.399Z,17.10
2019-05-25T07:03:54.496Z,17.20
2019-05-25T07:06:22.953Z,17.10
2019-05-25T07:08:51.400Z,17.00
2019-05-25T07:11:23.674Z,17.10
2019-05-25T07:13:51.356Z,17.20
2019-05-25T07:16:19.839Z,17.40
2019-05-25T07:18:48.363Z,17.40
2019-05-25T07:21:16.831Z,17.60
2019-05-25T07:23:53.208Z,17.80
2019-05-25T07:26:21.768Z,17.80
2019-05-25T07:28:50.325Z,17.90
2019-05-25T07:31:18.910Z,18.20
2019-05-25T07:33:47.581Z,18.30
2019-05-25T07:36:17.315Z,18.20
2019-05-25T07:38:45.889Z,18.30
2019-05-25T07:41:14.391Z,18.10
2019-05-25T07:43:42.904Z,18.10
2019-05-25T07:46:11.503Z,18.20
2019-05-25T07:48:40.174Z,18.30
2019-05-25T07:51:08.669Z,18.30
2019-05-25T07:53:37.268Z,18.30
2019-05-25T07:56:05.820Z,18.20
2019-05-25T07:58:34.296Z,18.40
2019-05-25T08:01:02.786Z,18.70
2019-05-25T08:03:31.348Z,18.70
2019-05-25T08:05:59.889Z,18.70
2019-05-25T08:08:28.549Z,18.60
2019-05-25T08:10:57.156Z,18.70
2019-05-25T08:13:25.766Z,18.70
2019-05-25T08:15:54.484Z,18.70
2019-05-25T08:18:23.095Z,18.90
2019-05-25T08:20:51.645Z,19.00
2019-05-25T08:23:20.319Z,19.10
2019-05-25T08:25:48.954Z,19.10
2019-05-25T08:28:45.503Z,19.20
2019-05-25T08:31:01.707Z,19.40
2019-05-25T08:33:30.264Z,19.50
2019-05-25T08:35:58.710Z,19.60
2019-05-25T08:38:27.182Z,19.80
2019-05-25T08:40:55.644Z,19.90
2019-05-25T08:43:24.089Z,20.10
2019-05-25T08:45:52.556Z,20.30
2019-05-25T08:48:21.020Z,20.40
2019-05-25T08:50:49.484Z,20.50
2019-05-25T08:53:22.845Z,20.60
2019-05-25T08:55:48.121Z,20.60
2019-05-25T08:58:16.707Z,20.60
2019-05-25T09:00:45.253Z,20.70
2019-05-25T09:03:13.773Z,20.70
2019-05-25T09:05:42.239Z,20.80
2019-05-25T09:08:10.760Z,20.80
2019-05-25T09:10:39.299Z,21.10
2019-05-25T09:13:07.816Z,21.50
2019-05-25T09:15:36.286Z,21.70
2019-05-25T09:18:04.800Z,22.00
2019-05-25T09:20:33.261Z,22.00
2019-05-25T09:23:01.717Z,22.10
2019-05-25T09:25:30.171Z,22.00
2019-05-25T09:27:58.629Z,22.20
2019-05-25T09:30:27.165Z,22.30
2019-05-25T09:32:55.619Z,22.20
2019-05-25T09:35:24.096Z,22.30
2019-05-25T09:37:52.641Z,22.50
2019-05-25T09:40:21.173Z,22.90
2019-05-25T09:42:50.249Z,23.10
2019-05-25T09:45:26.086Z,23.30
2019-05-25T09:47:54.718Z,23.40
2019-05-25T09:50:24.864Z,23.30
2019-05-25T09:53:04.836Z,23.30
2019-05-25T09:55:33.328Z,23.10
2019-05-25T09:58:01.911Z,23.00
2019-05-25T10:00:31.138Z,23.20
2019-05-25T10:02:59.771Z,23.40
2019-05-25T10:05:28.243Z,23.50
2019-05-25T10:07:56.855Z,23.80
2019-05-25T10:10:25.380Z,23.90
2019-05-25T10:12:53.831Z,23.80
2019-05-25T10:15:22.305Z,23.50
2019-05-25T10:17:53.676Z,23.80
2019-05-25T10:20:22.292Z,23.70
2019-05-25T10:22:50.791Z,23.40
2019-05-25T10:25:19.376Z,23.40
2019-05-25T10:27:47.831Z,23.40
2019-05-25T10:30:18.121Z,23.20
2019-05-25T10:32:48.306Z,23.10
2019-05-25T10:35:19.004Z,23.20
2019-05-25T10:37:49.141Z,23.40
2019-05-25T10:40:21.911Z,23.60
2019-05-25T10:42:50.461Z,23.70
2019-05-25T10:45:18.999Z,24.00
2019-05-25T10:47:47.451Z,24.20
2019-05-25T10:50:16.523Z,24.30
2019-05-25T10:52:45.041Z,24.10
2019-05-25T10:55:15.107Z,24.10
2019-05-25T10:57:43.588Z,24.80
2019-05-25T11:00:13.152Z,25.10
2019-05-25T11:02:43.251Z,25.10
2019-05-25T11:05:11.929Z,24.90
2019-05-25T11:07:40.439Z,25.50
2019-05-25T11:10:10.591Z,26.30
2019-05-25T11:12:39.090Z,26.10
2019-05-25T11:15:08.961Z,26.50
2019-05-25T11:17:37.425Z,26.60
2019-05-25T11:20:11.279Z,26.80
2019-05-25T11:22:39.752Z,27.20
2019-05-25T11:25:09.248Z,27.80
2019-05-25T11:27:41.261Z,29.00
2019-05-25T11:30:13.509Z,29.60
2019-05-25T11:32:42.024Z,29.80
2019-05-25T11:35:11.204Z,29.80
2019-05-25T11:37:39.720Z,28.50
2019-05-25T11:40:10.195Z,28.70
2019-05-25T11:42:38.667Z,29.10
2019-05-25T11:45:08.547Z,28.20
2019-05-25T11:47:38.635Z,27.20
2019-05-25T11:50:09.217Z,26.50
2019-05-25T11:52:37.770Z,26.10
2019-05-25T11:55:08.064Z,26.60
2019-05-25T11:57:36.571Z,26.90
2019-05-25T12:00:24.244Z,27.50
2019-05-25T12:02:44.687Z,27.70
2019-05-25T12:05:13.953Z,28.10
2019-05-25T12:07:44.632Z,28.30
2019-05-25T12:10:14.692Z,28.30
2019-05-25T12:12:46.169Z,27.70
2019-05-25T12:15:17.357Z,27.30
2019-05-25T12:17:45.867Z,26.90
2019-05-25T12:20:15.160Z,25.80
2019-05-25T12:22:43.633Z,26.70
2019-05-25T12:25:12.765Z,26.80
2019-05-25T12:27:41.289Z,26.80
2019-05-25T12:30:10.478Z,27.00
2019-05-25T12:32:38.933Z,27.30
2019-05-25T12:35:07.825Z,27.50
2019-05-25T12:37:36.294Z,27.60
2019-05-25T12:40:06.647Z,27.50
2019-05-25T12:42:35.120Z,27.30
2019-05-25T12:45:04.022Z,27.80
2019-05-25T12:47:32.531Z,27.70
2019-05-25T12:50:00.985Z,27.60
2019-05-25T12:52:29.457Z,27.10
2019-05-25T12:54:57.923Z,27.20
2019-05-25T12:57:26.391Z,27.20
2019-05-25T12:59:54.924Z,27.60
2019-05-25T13:02:25.513Z,27.90
2019-05-25T13:04:54.225Z,27.60
2019-05-25T13:07:22.745Z,27.80
2019-05-25T13:09:51.269Z,28.10
2019-05-25T13:12:19.719Z,28.50
2019-05-25T13:14:48.245Z,28.00
2019-05-25T13:17:16.703Z,27.60
2019-05-25T13:19:45.153Z,27.00
2019-05-25T13:22:13.613Z,26.50
2019-05-25T13:24:42.380Z,26.10
2019-05-25T13:27:10.894Z,25.50
2019-05-25T13:29:39.360Z,25.30
2019-05-25T13:32:07.800Z,25.00
2019-05-25T13:34:36.260Z,25.10
2019-05-25T13:37:04.782Z,24.90
2019-05-25T13:39:33.286Z,24.80
2019-05-25T13:42:01.795Z,24.70
2019-05-25T13:44:30.244Z,24.70
2019-05-25T13:46:58.696Z,24.40
2019-05-25T13:49:27.146Z,24.10
2019-05-25T13:51:55.604Z,24.30
2019-05-25T13:54:24.058Z,24.20
2019-05-25T13:56:52.516Z,24.10
2019-05-25T13:59:20.967Z,23.90
2019-05-25T14:01:49.422Z,24.00
2019-05-25T14:04:17.866Z,23.70
2019-05-25T14:06:46.348Z,22.90
2019-05-25T14:09:15.997Z,22.60
2019-05-25T14:11:44.634Z,22.60
2019-05-25T14:14:14.640Z,22.50
2019-05-25T14:16:43.086Z,22.60
2019-05-25T14:19:13.274Z,22.40
2019-05-25T14:21:41.732Z,22.30
2019-05-25T14:24:10.184Z,22.00
2019-05-25T14:26:38.631Z,22.20
2019-05-25T14:29:07.114Z,22.40
2019-05-25T14:31:44.853Z,22.10
2019-05-25T14:34:05.754Z,22.20
2019-05-25T14:36:34.274Z,22.10
2019-05-25T14:39:02.719Z,21.50
2019-05-25T14:41:31.258Z,21.70
2019-05-25T14:43:59.784Z,21.80
2019-05-25T14:46:28.563Z,22.10
2019-05-25T14:48:57.100Z,22.20
2019-05-25T14:51:25.554Z,22.40
2019-05-25T14:53:54.076Z,22.30
2019-05-25T14:56:22.641Z,22.40
2019-05-25T14:58:51.207Z,22.20
2019-05-25T15:01:19.717Z,21.90
2019-05-25T15:03:48.215Z,21.80
2019-05-25T15:06:20.687Z,22.10
2019-05-25T15:08:46.829Z,22.00
2019-05-25T15:11:15.304Z,21.50
2019-05-25T15:13:43.750Z,21.10
2019-05-25T15:16:12.201Z,20.60
2019-05-25T15:18:40.664Z,20.50
2019-05-25T15:21:09.162Z,20.50
2019-05-25T15:23:37.692Z,20.20
2019-05-25T15:26:06.149Z,20.00
2019-05-25T15:28:34.601Z,19.80
2019-05-25T15:31:03.056Z,19.90
2019-05-25T15:33:31.503Z,19.80
2019-05-25T15:35:59.982Z,19.70
2019-05-25T15:38:28.912Z,19.50
2019-05-25T15:40:57.470Z,19.50
2019-05-25T15:43:25.992Z,19.50
2019-05-25T15:45:54.440Z,19.40
2019-05-25T15:48:26.153Z,19.40
2019-05-25T15:50:53.065Z,19.30
2019-05-25T15:53:21.524Z,19.20
2019-05-25T15:55:50.116Z,19.10
2019-05-25T15:58:18.611Z,19.20
2019-05-25T16:00:49.205Z,19.30
2019-05-25T16:03:19.467Z,19.20
2019-05-25T16:05:48.406Z,19.20
2019-05-25T16:08:18.363Z,18.90
2019-05-25T16:10:47.630Z,19.10
2019-05-25T16:13:16.714Z,19.00
2019-05-25T16:15:45.271Z,18.70
2019-05-25T16:18:13.784Z,18.70
2019-05-25T16:20:42.246Z,18.60
2019-05-25T16:23:11.063Z,18.60
2019-05-25T16:25:39.525Z,18.80
2019-05-25T16:28:08.054Z,18.50
2019-05-25T16:30:36.503Z,18.50
2019-05-25T16:33:12.208Z,18.60
2019-05-25T16:35:35.244Z,18.60
2019-05-25T16:38:03.821Z,18.60
2019-05-25T16:40:32.507Z,18.50
2019-05-25T16:43:00.965Z,18.40
2019-05-25T16:45:29.433Z,18.40
2019-05-25T16:47:57.883Z,18.30
2019-05-25T16:50:26.340Z,18.10
2019-05-25T16:52:55.007Z,18.00
2019-05-25T16:55:23.520Z,17.90
2019-05-25T16:57:51.968Z,18.00
2019-05-25T17:00:28.929Z,18.20
2019-05-25T17:02:59.016Z,18.00
2019-05-25T17:05:28.382Z,17.80
2019-05-25T17:07:57.197Z,17.70
2019-05-25T17:10:25.728Z,17.70
2019-05-25T17:12:54.248Z,17.60
2019-05-25T17:15:22.697Z,17.60
2019-05-25T17:17:51.414Z,17.70
2019-05-25T17:20:20.076Z,17.50
2019-05-25T17:22:48.599Z,17.50
2019-05-25T17:25:18.006Z,17.40
2019-05-25T17:27:46.520Z,17.40
2019-05-25T17:30:16.016Z,17.40
2019-05-25T17:32:44.479Z,17.50
2019-05-25T17:35:13.083Z,17.40
2019-05-25T17:37:41.624Z,17.50
2019-05-25T17:40:10.142Z,17.40
2019-05-25T17:42:38.585Z,17.40
2019-05-25T17:45:07.254Z,17.30
2019-05-25T17:47:35.924Z,17.30
2019-05-25T17:50:06.091Z,17.30
2019-05-25T17:52:34.547Z,17.20
2019-05-25T17:55:03.640Z,17.20
2019-05-25T17:57:32.097Z,17.20
2019-05-25T18:00:00.537Z,17.20
2019-05-25T18:02:29.008Z,17.20
2019-05-25T18:04:57.527Z,17.30
2019-05-25T18:07:25.983Z,17.30
2019-05-25T18:09:54.442Z,17.50
2019-05-25T18:12:22.966Z,17.90
2019-05-25T18:14:51.415Z,17.70
2019-05-25T18:17:19.862Z,17.80
2019-05-25T18:19:48.307Z,18.00
2019-05-25T18:22:16.765Z,17.90
2019-05-25T18:24:45.209Z,17.70
2019-05-25T18:27:13.669Z,17.40
2019-05-25T18:29:42.240Z,17.50
2019-05-25T18:32:10.694Z,17.50
2019-05-25T18:34:39.155Z,17.60
2019-05-25T18:37:07.610Z,17.50
2019-05-25T18:39:36.076Z,17.40
2019-05-25T18:42:04.653Z,17.40
2019-05-25T18:44:33.103Z,17.50
2019-05-25T18:47:01.568Z,17.60
2019-05-25T18:49:30.024Z,17.40
2019-05-25T18:51:58.477Z,17.00
2019-05-25T18:54:26.968Z,17.20
2019-05-25T18:56:55.456Z,17.20
2019-05-25T18:59:23.902Z,17.10
2019-05-25T19:01:52.367Z,16.70
2019-05-25T19:04:20.884Z,16.50
2019-05-25T19:06:49.334Z,16.40
2019-05-25T19:09:17.792Z,16.30
2019-05-25T19:11:46.337Z,16.40
2019-05-25T19:14:14.844Z,16.60
2019-05-25T19:16:43.297Z,16.60
2019-05-25T19:19:11.758Z,16.50
2019-05-25T19:21:40.196Z,16.40
2019-05-25T19:24:08.665Z,16.30
2019-05-25T19:26:37.114Z,16.60
2019-05-25T19:29:05.999Z,16.60
2019-05-25T19:31:34.686Z,16.90
2019-05-25T19:34:03.173Z,16.60
2019-05-25T19:36:31.670Z,16.40
2019-05-25T19:39:00.207Z,16.40
2019-05-25T19:41:28.671Z,16.20
2019-05-25T19:43:57.119Z,16.20
2019-05-25T19:46:25.603Z,16.40
2019-05-25T19:48:54.068Z,16.30
2019-05-25T19:51:22.579Z,16.00
2019-05-25T19:53:51.050Z,16.00
2019-05-25T19:56:19.510Z,15.90
2019-05-25T19:58:48.032Z,16.10
2019-05-25T20:01:16.485Z,16.30
2019-05-25T20:03:44.942Z,16.10
2019-05-25T20:06:13.387Z,16.10
2019-05-25T20:08:41.843Z,16.30
2019-05-25T20:11:10.316Z,16.20
2019-05-25T20:13:38.923Z,16.20
2019-05-25T20:16:07.437Z,16.10
2019-05-25T20:18:35.901Z,16.00
2019-05-25T20:21:04.382Z,16.10
2019-05-25T20:23:32.889Z,16.10
2019-05-25T20:26:01.424Z,16.20
2019-05-25T20:28:29.872Z,16.30
2019-05-25T20:30:58.353Z,16.00
2019-05-25T20:33:28.211Z,16.10
2019-05-25T20:35:56.936Z,15.80
2019-05-25T20:38:25.424Z,15.60
2019-05-25T20:40:53.882Z,15.40
2019-05-25T20:43:22.335Z,15.30
2019-05-25T20:45:50.784Z,15.30
2019-05-25T20:48:19.309Z,15.20
2019-05-25T20:50:47.896Z,15.10
2019-05-25T20:53:16.364Z,15.10
2019-05-25T20:55:44.897Z,15.00
2019-05-25T20:58:13.408Z,15.00
2019-05-25T21:00:42.369Z,14.90
2019-05-25T21:03:11.380Z,14.80
2019-05-25T21:05:49.669Z,14.60
2019-05-25T21:08:10.150Z,14.60
2019-05-25T21:10:38.894Z,14.60
2019-05-25T21:13:07.349Z,14.40
2019-05-25T21:15:35.817Z,14.40
2019-05-25T21:18:04.372Z,14.30
2019-05-25T21:20:32.901Z,14.30
2019-05-25T21:23:01.348Z,14.30
2019-05-25T21:25:29.829Z,14.30
2019-05-25T21:27:58.293Z,14.30
2019-05-25T21:30:28.623Z,14.20
2019-05-25T21:32:57.087Z,14.10
2019-05-25T21:35:25.536Z,14.10
2019-05-25T21:37:54.004Z,14.00
2019-05-25T21:40:22.463Z,14.00
2019-05-25T21:42:50.986Z,14.00
2019-05-25T21:45:19.631Z,13.90
2019-05-25T21:47:48.091Z,13.90
2019-05-25T21:50:17.163Z,13.80
2019-05-25T21:52:45.617Z,13.80
2019-05-25T21:55:14.435Z,13.80
2019-05-25T21:57:42.907Z,13.90
2019-05-25T22:00:14.116Z,13.80
2019-05-25T22:02:42.584Z,13.80
2019-05-25T22:05:12.420Z,13.80
2019-05-25T22:07:40.872Z,13.80
2019-05-25T22:10:09.964Z,13.80
2019-05-25T22:12:40.238Z,13.90
2019-05-25T22:15:12.394Z,13.90
2019-05-25T22:17:40.865Z,13.90
2019-05-25T22:20:10.173Z,13.80
2019-05-25T22:22:38.710Z,13.80
2019-05-25T22:25:08.015Z,13.80
2019-05-25T22:27:36.512Z,13.80
2019-05-25T22:30:09.814Z,13.80
2019-05-25T22:32:40.028Z,13.80
2019-05-25T22:35:09.021Z,13.70
2019-05-25T22:37:37.473Z,13.80
2019-05-25T22:40:08.076Z,13.80
2019-05-25T22:42:38.104Z,13.80
2019-05-25T22:45:07.902Z,13.80
2019-05-25T22:47:36.444Z,13.80
2019-05-25T22:50:06.524Z,13.80
2019-05-25T22:52:34.967Z,13.70
2019-05-25T22:55:04.309Z,13.70
2019-05-25T22:57:32.756Z,13.90
2019-05-25T23:00:01.251Z,13.90
2019-05-25T23:02:29.830Z,13.90
2019-05-25T23:05:01.400Z,13.80
2019-05-25T23:07:29.916Z,13.70
2019-05-25T23:09:58.416Z,13.80
2019-05-25T23:12:26.948Z,13.60
2019-05-25T23:14:55.418Z,13.60
2019-05-25T23:17:26.665Z,13.60
2019-05-25T23:19:57.084Z,13.60
2019-05-25T23:22:25.307Z,13.60
2019-05-25T23:24:53.792Z,13.60
2019-05-25T23:27:22.230Z,13.50
2019-05-25T23:29:50.686Z,13.60
2019-05-25T23:32:19.249Z,13.60
2019-05-25T23:34:47.716Z,13.80
2019-05-25T23:37:16.238Z,14.10
2019-05-25T23:39:44.712Z,14.30
2019-05-25T23:42:13.243Z,14.10
2019-05-25T23:44:41.764Z,14.40
2019-05-25T23:47:10.256Z,14.20
2019-05-25T23:49:38.716Z,14.20
2019-05-25T23:52:07.182Z,14.00
2019-05-25T23:54:35.724Z,13.90
2019-05-25T23:57:04.548Z,14.00
2019-05-25T23:59:33.004Z,14.20
